Kennedy Heights, Ohio
Current Conditions -  °F | °C
As of 3:53 AM on Friday 31 Oct 2014 (Local Time) from KLUK Reporting Station
Light Rain Light Rain  
Wind Chill: 43°   Ceiling: 6000
Heat Index: 43°   Visibility: 10mi
Dew Point: 40°   Wind: 0mph
Humidity: 89%   Direction: NA
Pressure: 30.03"   Gusts: NA
Location:  39.1805°N, 84.4198°W
Report Text: KLUK 310753Z AUTO 00000KT 10SM -RA SCT042 OVC060 06/04 A3003 RMK AO2 SLP171 P0000 T00610044
Loading
Personal Weather Stations






























Interactive Weather Map
Tropical Storm Tracking
New forecast layout! Learn more

10-Day Weather Forecast

Advertisements
Track Severe Weather on mobile